Time;durP1;ratioP1;P1;durP2;ratioP2;P2;SDS_P1;SDS_P2;PMS_P1;PMS_P2;Temp;Humidity;BMP_temperature;BMP_pressure;BME280_temperature;BME280_humidity;BME280_pressure;Samples;Min_cycle;Max_cycle;Signal;HPM_P1;HPM_P2
2023/09/20 00:00:55;;;;;;;1.47;0.90;;;18.50;98.20;;;;;;4970173;28;20485;-79
2023/09/20 00:03:25;;;;;;;1.40;0.90;;;18.50;98.20;;;;;;4984394;28;20472;-79
2023/09/20 00:05:53;;;;;;;1.47;0.90;;;18.40;98.20;;;;;;4966001;28;20555;-78
2023/09/20 00:08:20;;;;;;;1.50;1.00;;;18.40;98.20;;;;;;4972329;28;20553;-79
2023/09/20 00:10:48;;;;;;;1.43;0.90;;;18.40;98.20;;;;;;4977413;28;21007;-80
2023/09/20 00:13:15;;;;;;;1.50;1.00;;;18.30;98.20;;;;;;4982555;28;20891;-79
2023/09/20 00:15:42;;;;;;;1.50;0.90;;;18.30;98.20;;;;;;4981557;28;20514;-79
2023/09/20 00:18:09;;;;;;;1.47;0.90;;;18.30;98.20;;;;;;4971522;28;20936;-79
2023/09/20 00:20:36;;;;;;;1.43;0.90;;;18.30;98.20;;;;;;4979955;28;20461;-79
2023/09/20 00:23:03;;;;;;;1.50;0.90;;;18.20;98.20;;;;;;4970384;28;20496;-78
2023/09/20 00:25:30;;;;;;;1.43;0.90;;;18.20;98.20;;;;;;4974198;28;20567;-80
2023/09/20 00:27:58;;;;;;;1.50;0.93;;;18.20;98.20;;;;;;4986737;28;20488;-80
2023/09/20 00:30:24;;;;;;;1.47;0.90;;;18.10;98.20;;;;;;4984763;28;20488;-80
2023/09/20 00:32:51;;;;;;;1.50;1.00;;;18.10;98.20;;;;;;4961034;28;20487;-79
2023/09/20 00:35:18;;;;;;;1.50;0.90;;;18.10;98.20;;;;;;4976200;28;20219;-79
2023/09/20 00:37:46;;;;;;;1.50;1.00;;;18.10;98.20;;;;;;4967918;28;20564;-79
2023/09/20 00:40:17;;;;;;;1.47;0.93;;;18.10;98.20;;;;;;4979293;28;20838;-79
2023/09/20 00:42:45;;;;;;;1.50;1.00;;;18.10;98.20;;;;;;4974344;28;21065;-79
2023/09/20 00:45:15;;;;;;;1.50;0.90;;;18.00;98.20;;;;;;4977570;28;20466;-79
2023/09/20 00:47:44;;;;;;;1.50;1.00;;;18.00;98.20;;;;;;4963838;28;20483;-78
2023/09/20 00:50:12;;;;;;;1.50;1.00;;;18.00;98.20;;;;;;4974178;28;20542;-79
2023/09/20 00:52:43;;;;;;;1.50;1.00;;;17.90;98.20;;;;;;4968360;28;21112;-80
2023/09/20 00:55:15;;;;;;;1.50;0.90;;;17.90;98.20;;;;;;4976331;28;20457;-79
2023/09/20 00:57:42;;;;;;;1.50;0.90;;;17.90;98.20;;;;;;4973971;28;21069;-79
2023/09/20 01:00:20;;;;;;;1.47;0.90;;;17.90;98.20;;;;;;4984638;28;20461;-79
2023/09/20 01:02:49;;;;;;;1.50;0.90;;;17.80;98.20;;;;;;4974049;28;20542;-79
2023/09/20 01:05:21;;;;;;;1.43;1.00;;;17.80;98.20;;;;;;4976933;28;20534;-79
2023/09/20 01:07:51;;;;;;;1.50;0.90;;;17.80;98.20;;;;;;4970313;28;21003;-80
2023/09/20 01:10:22;;;;;;;1.47;0.90;;;17.70;98.20;;;;;;4979172;28;20494;-79
2023/09/20 01:12:51;;;;;;;1.50;1.00;;;17.70;98.20;;;;;;4972872;28;20871;-79
2023/09/20 01:15:20;;;;;;;1.43;0.97;;;17.70;98.20;;;;;;4975684;28;20474;-79
2023/09/20 01:17:49;;;;;;;1.50;0.97;;;17.70;98.20;;;;;;4966400;28;20613;-79
2023/09/20 01:20:19;;;;;;;1.50;1.00;;;17.70;98.20;;;;;;4973723;28;20474;-79
2023/09/20 01:22:47;;;;;;;1.43;0.90;;;17.70;98.20;;;;;;4972574;28;20575;-80
2023/09/20 01:25:24;;;;;;;1.43;1.00;;;17.60;98.20;;;;;;4978263;28;20468;-79
2023/09/20 01:27:55;;;;;;;1.50;1.00;;;17.60;98.20;;;;;;4974236;28;20497;-79
2023/09/20 01:30:25;;;;;;;1.50;0.97;;;17.60;98.20;;;;;;4985140;28;20541;-79
2023/09/20 01:32:53;;;;;;;1.47;0.93;;;17.60;98.20;;;;;;4966666;28;21277;-79
2023/09/20 01:35:20;;;;;;;1.47;1.00;;;17.50;98.20;;;;;;4981861;28;20517;-79
2023/09/20 01:37:50;;;;;;;1.50;1.00;;;17.50;98.20;;;;;;4973670;28;20481;-79
2023/09/20 01:40:18;;;;;;;1.47;0.90;;;17.50;98.20;;;;;;4981224;28;20473;-79
2023/09/20 01:42:46;;;;;;;1.47;1.07;;;17.40;98.20;;;;;;4970566;28;20890;-80
2023/09/20 01:45:16;;;;;;;1.47;1.00;;;17.40;98.20;;;;;;4977822;28;20748;-79
2023/09/20 01:47:49;;;;;;;1.47;1.00;;;17.40;98.20;;;;;;4974553;28;20531;-77
2023/09/20 01:50:19;;;;;;;1.50;0.90;;;17.40;98.20;;;;;;4981501;28;20964;-79
2023/09/20 01:52:49;;;;;;;1.43;1.00;;;17.40;98.20;;;;;;4966959;28;20482;-79
2023/09/20 01:55:17;;;;;;;1.50;1.00;;;17.30;98.20;;;;;;4975508;28;20465;-79
2023/09/20 01:57:45;;;;;;;1.50;1.00;;;17.30;98.20;;;;;;4971345;28;20482;-79
2023/09/20 02:00:16;;;;;;;1.50;1.00;;;17.30;98.20;;;;;;4978050;28;20465;-80
2023/09/20 02:02:44;;;;;;;1.40;0.90;;;17.30;98.20;;;;;;4962707;28;20564;-79
2023/09/20 02:05:14;;;;;;;1.43;0.90;;;17.30;98.20;;;;;;4976752;28;20470;-80
2023/09/20 02:07:41;;;;;;;1.40;0.90;;;17.30;98.20;;;;;;4978263;28;20476;-79
2023/09/20 02:10:10;;;;;;;1.43;1.00;;;17.30;98.20;;;;;;4986352;28;20467;-81
2023/09/20 02:12:37;;;;;;;1.40;1.00;;;17.30;98.20;;;;;;4966247;28;20760;-80
2023/09/20 02:15:07;;;;;;;1.50;1.00;;;17.30;98.20;;;;;;4981365;28;20602;-79
2023/09/20 02:17:35;;;;;;;1.40;0.90;;;17.30;98.20;;;;;;4968357;28;20472;-79
2023/09/20 02:20:08;;;;;;;1.47;1.00;;;17.30;98.20;;;;;;4986700;28;20519;-80
2023/09/20 02:22:36;;;;;;;1.40;0.97;;;17.30;98.20;;;;;;4970586;28;20490;-79
2023/09/20 02:25:04;;;;;;;1.47;1.00;;;17.30;98.20;;;;;;4981856;28;20469;-79
2023/09/20 02:27:34;;;;;;;1.47;1.00;;;17.20;98.20;;;;;;4971536;28;20510;-80
2023/09/20 02:30:00;;;;;;;1.50;1.10;;;17.20;98.20;;;;;;4986237;28;20515;-81
2023/09/20 02:32:27;;;;;;;1.47;1.00;;;17.20;98.20;;;;;;4975356;28;20486;-80
2023/09/20 02:34:54;;;;;;;1.47;0.90;;;17.20;98.20;;;;;;4990193;28;20464;-80
2023/09/20 02:37:23;;;;;;;1.50;1.00;;;17.20;98.20;;;;;;4976603;28;20698;-80
2023/09/20 02:39:49;;;;;;;1.47;0.97;;;17.20;98.20;;;;;;4987193;28;20532;-80
2023/09/20 02:42:17;;;;;;;1.50;0.90;;;17.20;98.20;;;;;;4973024;28;20485;-80
2023/09/20 02:44:47;;;;;;;1.60;1.30;;;17.20;98.20;;;;;;4979712;28;20466;-80
2023/09/20 02:47:13;;;;;;;1.47;0.90;;;17.20;98.20;;;;;;4973005;28;20495;-79
2023/09/20 02:49:41;;;;;;;1.40;0.90;;;17.30;98.20;;;;;;4988435;28;20462;-80
2023/09/20 02:52:09;;;;;;;1.43;0.90;;;17.30;98.20;;;;;;4976083;28;21013;-80
2023/09/20 02:54:36;;;;;;;1.43;0.97;;;17.30;98.20;;;;;;4977728;28;20466;-80
2023/09/20 02:57:03;;;;;;;1.50;0.90;;;17.30;98.20;;;;;;4974400;28;20485;-79
2023/09/20 02:59:30;;;;;;;1.47;0.90;;;17.30;98.20;;;;;;4987045;28;20472;-80
2023/09/20 03:01:58;;;;;;;1.43;0.90;;;17.30;98.20;;;;;;4966938;28;20473;-80
2023/09/20 03:04:24;;;;;;;1.50;1.00;;;17.40;98.20;;;;;;4981491;28;20556;-80
2023/09/20 03:06:51;;;;;;;1.40;1.00;;;17.40;98.20;;;;;;4971885;28;20493;-79
2023/09/20 03:09:18;;;;;;;1.40;0.90;;;17.30;98.20;;;;;;4984237;28;20469;-80
2023/09/20 03:11:45;;;;;;;1.50;1.00;;;17.40;98.20;;;;;;4978007;28;20485;-80
2023/09/20 03:14:13;;;;;;;1.50;0.90;;;17.40;98.20;;;;;;4986845;28;20771;-81
2023/09/20 03:16:43;;;;;;;1.50;1.00;;;17.40;98.20;;;;;;4974185;28;20512;-80
2023/09/20 03:19:14;;;;;;;1.43;1.00;;;17.40;98.20;;;;;;4987937;28;20489;-81
2023/09/20 03:21:41;;;;;;;1.50;1.00;;;17.40;98.20;;;;;;4977329;28;20923;-80
2023/09/20 03:24:08;;;;;;;1.50;1.00;;;17.40;98.20;;;;;;4988177;28;20471;-81
2023/09/20 03:26:36;;;;;;;1.50;1.00;;;17.40;98.20;;;;;;4965871;28;20835;-80
2023/09/20 03:29:04;;;;;;;1.47;0.93;;;17.40;98.20;;;;;;4985950;28;20473;-79
2023/09/20 03:31:31;;;;;;;1.50;1.00;;;17.40;98.20;;;;;;4977216;28;20495;-80
2023/09/20 03:34:01;;;;;;;1.50;1.00;;;17.40;98.20;;;;;;4974289;28;20519;-80
2023/09/20 03:36:32;;;;;;;1.43;1.00;;;17.40;98.20;;;;;;4976998;28;20883;-80
2023/09/20 03:38:59;;;;;;;1.40;0.90;;;17.40;98.20;;;;;;4994309;28;20465;-80
2023/09/20 03:41:26;;;;;;;1.47;1.00;;;17.30;98.20;;;;;;4980592;28;20598;-81
2023/09/20 03:43:53;;;;;;;1.50;1.00;;;17.30;98.20;;;;;;4985459;28;20468;-79
2023/09/20 03:46:19;;;;;;;6.90;2.70;;;17.30;98.20;;;;;;4974240;28;21054;-80
2023/09/20 03:48:46;;;;;;;1.50;1.00;;;17.30;98.20;;;;;;4995862;28;20461;-79
2023/09/20 03:51:16;;;;;;;1.43;0.90;;;17.20;98.20;;;;;;4979468;28;20481;-82
2023/09/20 03:53:44;;;;;;;1.50;1.00;;;17.20;98.20;;;;;;4987697;28;20488;-80
2023/09/20 03:56:13;;;;;;;1.47;1.00;;;17.20;98.20;;;;;;4979575;28;21048;-82
2023/09/20 03:58:39;;;;;;;1.50;0.90;;;17.20;98.20;;;;;;4998252;28;20464;-80
2023/09/20 04:01:07;;;;;;;1.50;1.00;;;17.10;98.20;;;;;;4980273;28;22851;-81
2023/09/20 04:03:36;;;;;;;1.47;1.00;;;17.10;98.20;;;;;;4983832;28;20496;-80
2023/09/20 04:06:03;;;;;;;1.47;1.00;;;17.10;98.20;;;;;;4974033;28;20876;-79
2023/09/20 04:08:30;;;;;;;1.50;1.10;;;17.10;98.20;;;;;;4988911;28;20543;-79
2023/09/20 04:10:58;;;;;;;1.50;1.00;;;17.10;98.20;;;;;;4964123;28;20561;-81
2023/09/20 04:13:25;;;;;;;1.50;1.00;;;17.10;98.20;;;;;;4989024;28;20476;-80
2023/09/20 04:15:52;;;;;;;1.47;0.93;;;17.10;98.20;;;;;;4967572;28;20529;-80
2023/09/20 04:18:18;;;;;;;1.47;1.00;;;17.10;98.20;;;;;;4989794;28;20569;-81
2023/09/20 04:20:47;;;;;;;1.47;0.90;;;17.00;98.20;;;;;;4977680;28;20505;-81
2023/09/20 04:23:14;;;;;;;1.50;0.90;;;17.00;98.20;;;;;;4963403;28;20506;-81
2023/09/20 04:25:41;;;;;;;1.50;1.00;;;17.00;98.20;;;;;;4971043;28;20522;-79
2023/09/20 04:28:09;;;;;;;1.43;1.00;;;17.00;98.20;;;;;;4977461;28;21059;-81
2023/09/20 04:30:38;;;;;;;1.43;0.90;;;16.90;98.20;;;;;;4973417;28;20545;-81
2023/09/20 04:33:06;;;;;;;1.47;0.93;;;16.90;98.20;;;;;;4976955;28;20473;-80
2023/09/20 04:35:34;;;;;;;1.50;1.00;;;16.90;98.20;;;;;;4974768;28;20533;-81
2023/09/20 04:38:01;;;;;;;1.50;1.00;;;16.90;98.20;;;;;;4982059;28;20483;-81
2023/09/20 04:40:28;;;;;;;1.50;0.90;;;16.90;98.20;;;;;;4974981;28;20473;-81
2023/09/20 04:42:55;;;;;;;1.50;1.10;;;16.90;98.20;;;;;;4982973;28;20485;-80
2023/09/20 04:45:23;;;;;;;1.50;1.00;;;16.90;98.20;;;;;;4970695;28;20465;-81
2023/09/20 04:47:50;;;;;;;1.50;1.00;;;16.90;98.20;;;;;;4975682;28;20483;-81
2023/09/20 04:50:17;;;;;;;1.50;1.00;;;16.80;98.20;;;;;;4967769;28;20474;-81
2023/09/20 04:52:45;;;;;;;1.50;0.90;;;16.80;98.20;;;;;;4978340;28;20599;-80
2023/09/20 04:55:12;;;;;;;1.43;0.90;;;16.80;98.20;;;;;;4973813;28;20488;-79
2023/09/20 04:57:38;;;;;;;1.43;0.90;;;16.80;98.20;;;;;;4979289;28;20488;-80
2023/09/20 05:00:07;;;;;;;1.50;1.00;;;16.80;98.20;;;;;;4970778;28;20824;-79
2023/09/20 05:02:36;;;;;;;1.50;0.90;;;16.80;98.20;;;;;;4978739;28;20481;-81
2023/09/20 05:05:03;;;;;;;1.50;1.00;;;16.70;98.20;;;;;;4972773;28;20555;-80
2023/09/20 05:07:31;;;;;;;1.47;1.00;;;16.70;98.20;;;;;;4978179;28;20485;-80
2023/09/20 05:09:57;;;;;;;1.50;1.00;;;16.70;98.20;;;;;;4971761;28;20465;-79
2023/09/20 05:12:24;;;;;;;1.50;1.00;;;16.70;98.20;;;;;;4980092;28;21031;-79
2023/09/20 05:14:51;;;;;;;1.50;1.00;;;16.70;98.20;;;;;;4974969;28;20470;-79
2023/09/20 05:17:18;;;;;;;1.50;1.00;;;16.70;98.20;;;;;;4974697;28;20500;-79
2023/09/20 05:19:46;;;;;;;1.50;1.00;;;16.70;98.20;;;;;;4974870;28;20462;-80
2023/09/20 05:22:13;;;;;;;1.50;0.93;;;16.70;98.20;;;;;;4977289;28;20584;-80
2023/09/20 05:24:40;;;;;;;1.50;1.00;;;16.70;98.20;;;;;;4970975;28;20474;-79
2023/09/20 05:27:07;;;;;;;1.50;0.90;;;16.70;98.20;;;;;;4976013;28;20509;-81
2023/09/20 05:29:34;;;;;;;1.50;1.00;;;16.70;98.20;;;;;;4978492;28;20467;-80
2023/09/20 05:32:01;;;;;;;1.50;1.10;;;16.70;98.20;;;;;;4975624;28;20473;-81
2023/09/20 05:34:28;;;;;;;1.50;1.00;;;16.70;98.20;;;;;;4979129;28;20470;-81
2023/09/20 05:36:56;;;;;;;1.50;0.90;;;16.70;98.20;;;;;;4976191;28;20665;-80
2023/09/20 05:39:23;;;;;;;1.50;0.90;;;16.70;98.20;;;;;;4966204;28;20474;-82
2023/09/20 05:41:49;;;;;;;1.50;0.90;;;16.80;98.20;;;;;;4968700;28;20479;-79
2023/09/20 05:44:18;;;;;;;1.50;1.00;;;16.80;98.20;;;;;;4977641;28;20474;-80
2023/09/20 05:46:46;;;;;;;1.50;1.00;;;16.80;98.20;;;;;;4967896;28;20317;-81
2023/09/20 05:49:13;;;;;;;1.50;1.00;;;16.90;98.20;;;;;;4973337;28;20616;-80
2023/09/20 05:51:40;;;;;;;1.50;1.13;;;16.90;98.20;;;;;;4966661;28;20490;-80
2023/09/20 05:54:08;;;;;;;1.50;1.00;;;16.90;98.20;;;;;;4971677;28;20473;-81
2023/09/20 05:56:35;;;;;;;1.50;1.00;;;17.00;98.20;;;;;;4955776;28;20490;-80
2023/09/20 05:59:04;;;;;;;1.50;1.00;;;17.00;98.20;;;;;;4962150;28;20533;-81
2023/09/20 06:01:32;;;;;;;1.43;0.90;;;17.00;98.20;;;;;;4968335;28;21187;-80
2023/09/20 06:04:01;;;;;;;1.60;1.30;;;17.00;98.20;;;;;;4977022;28;20512;-81
2023/09/20 06:06:30;;;;;;;1.40;1.00;;;17.10;98.20;;;;;;4967487;28;20493;-82
2023/09/20 06:08:57;;;;;;;1.50;0.90;;;17.10;98.20;;;;;;4985090;28;20534;-80
2023/09/20 06:11:26;;;;;;;1.80;1.50;;;17.20;98.20;;;;;;4971848;28;20494;-80
2023/09/20 06:13:52;;;;;;;1.47;1.00;;;17.20;98.20;;;;;;4979867;28;20490;-80
2023/09/20 06:16:19;;;;;;;1.47;1.00;;;17.30;98.20;;;;;;4970097;28;20548;-82
2023/09/20 06:18:46;;;;;;;1.50;1.00;;;17.30;98.20;;;;;;4977937;28;20472;-81
2023/09/20 06:21:14;;;;;;;1.50;1.00;;;17.30;98.20;;;;;;4969074;28;20567;-80
2023/09/20 06:23:41;;;;;;;1.50;1.00;;;17.40;98.20;;;;;;4983790;28;20458;-80
2023/09/20 06:26:09;;;;;;;1.50;1.00;;;17.50;98.20;;;;;;4968216;28;20484;-82
2023/09/20 06:28:40;;;;;;;1.40;0.90;;;17.60;98.20;;;;;;4981184;28;20473;-81
2023/09/20 06:31:07;;;;;;;1.50;1.00;;;17.60;98.20;;;;;;4965174;28;20510;-80
2023/09/20 06:33:34;;;;;;;1.43;0.90;;;17.70;98.20;;;;;;4977712;28;20520;-79
2023/09/20 06:36:02;;;;;;;1.47;1.00;;;17.70;98.20;;;;;;4965109;28;20482;-80
2023/09/20 06:38:30;;;;;;;1.50;1.00;;;17.80;98.20;;;;;;4988803;28;20466;-81
2023/09/20 06:40:57;;;;;;;1.50;0.90;;;17.80;98.20;;;;;;4968936;28;20470;-80
2023/09/20 06:43:24;;;;;;;1.50;0.90;;;17.80;98.20;;;;;;4986304;28;20530;-81
2023/09/20 06:45:52;;;;;;;1.50;1.10;;;17.80;98.20;;;;;;4965636;28;20582;-82
2023/09/20 06:48:22;;;;;;;1.47;0.97;;;17.90;98.20;;;;;;4977231;28;20469;-81
2023/09/20 06:50:49;;;;;;;1.50;1.00;;;17.90;98.20;;;;;;4958009;28;20478;-80
2023/09/20 06:53:17;;;;;;;1.50;1.00;;;18.00;98.20;;;;;;4981147;28;20498;-81
2023/09/20 06:55:44;;;;;;;1.50;1.00;;;18.10;98.20;;;;;;4974976;28;20881;-81
2023/09/20 06:58:10;;;;;;;1.50;0.90;;;18.20;98.20;;;;;;4972510;28;20466;-80
2023/09/20 07:00:37;;;;;;;1.50;0.90;;;18.30;98.20;;;;;;4972341;28;21108;-79
2023/09/20 07:03:06;;;;;;;1.50;0.90;;;18.40;98.20;;;;;;4976290;28;20536;-80
2023/09/20 07:05:33;;;;;;;1.50;0.90;;;18.60;98.20;;;;;;4970097;28;20581;-79
2023/09/20 07:08:00;;;;;;;1.50;1.00;;;18.70;98.20;;;;;;4967967;28;20552;-81
2023/09/20 07:10:29;;;;;;;1.50;1.10;;;18.70;98.20;;;;;;4970254;28;20470;-79
2023/09/20 07:12:56;;;;;;;1.50;1.00;;;18.70;98.20;;;;;;4976151;28;20477;-80
2023/09/20 07:15:25;;;;;;;1.50;0.90;;;18.80;98.20;;;;;;4970839;28;20476;-79
2023/09/20 07:17:59;;;;;;;1.50;1.10;;;18.70;98.20;;;;;;4967360;28;20528;-82
2023/09/20 07:20:28;;;;;;;1.50;0.90;;;18.70;98.20;;;;;;4969593;28;20468;-80
2023/09/20 07:22:55;;;;;;;1.50;0.90;;;18.60;98.20;;;;;;4983264;28;20488;-80
2023/09/20 07:25:27;;;;;;;1.50;0.97;;;18.60;98.20;;;;;;4970134;28;21024;-78
2023/09/20 07:27:55;;;;;;;1.47;0.90;;;18.60;98.20;;;;;;4972111;28;21102;-81
2023/09/20 07:30:23;;;;;;;1.50;0.90;;;18.60;98.20;;;;;;4974264;28;20898;-78
2023/09/20 07:32:52;;;;;;;1.50;1.00;;;18.60;98.20;;;;;;4968421;28;20588;-78
2023/09/20 07:35:26;;;;;;;1.47;1.00;;;18.70;98.20;;;;;;4967661;28;20474;-83
2023/09/20 07:37:56;;;;;;;1.50;1.00;;;18.60;98.20;;;;;;4967637;28;20477;-81
2023/09/20 07:40:29;;;;;;;1.50;0.90;;;18.70;98.20;;;;;;4971997;28;20462;-81
2023/09/20 07:42:59;;;;;;;1.50;1.00;;;18.70;98.20;;;;;;4972557;28;20509;-81
2023/09/20 07:45:31;;;;;;;1.50;0.93;;;18.70;98.20;;;;;;4973944;28;21115;-82
2023/09/20 07:48:00;;;;;;;1.50;0.93;;;18.70;98.20;;;;;;4967792;28;20477;-81
2023/09/20 07:50:29;;;;;;;1.50;0.90;;;18.60;98.20;;;;;;4972156;28;20493;-80
2023/09/20 07:52:58;;;;;;;1.50;1.00;;;18.60;98.20;;;;;;4970470;28;20604;-80
2023/09/20 07:55:30;;;;;;;2.57;1.77;;;18.70;98.20;;;;;;4969236;28;20478;-81
2023/09/20 07:57:58;;;;;;;1.50;0.90;;;18.70;98.20;;;;;;4970035;28;20575;-82
2023/09/20 08:00:26;;;;;;;1.50;0.90;;;18.80;98.20;;;;;;4971871;28;20473;-82
2023/09/20 08:02:54;;;;;;;1.50;0.90;;;18.90;98.20;;;;;;4953190;28;21092;-82
2023/09/20 08:05:22;;;;;;;1.43;0.90;;;18.90;98.20;;;;;;4967004;28;20461;-82
2023/09/20 08:07:49;;;;;;;1.47;1.00;;;19.00;98.20;;;;;;4974157;28;20765;-80
2023/09/20 08:10:17;;;;;;;1.50;1.00;;;19.10;98.20;;;;;;4972530;28;21031;-80
2023/09/20 08:12:44;;;;;;;1.50;0.90;;;19.20;98.20;;;;;;4971121;28;20500;-83
2023/09/20 08:15:13;;;;;;;3.77;3.20;;;19.20;98.20;;;;;;4970253;28;20482;-82
2023/09/20 08:20:26;;;;;;;1.50;0.90;;;19.30;98.20;;;;;;4968809;28;20512;-81
2023/09/20 09:01:37;;;;;;;1.50;1.00;;;20.10;98.20;;;;;;4966355;28;20476;-80
2023/09/20 09:04:07;;;;;;;1.47;0.90;;;20.10;98.20;;;;;;4980776;28;20469;-80
2023/09/20 09:06:34;;;;;;;1.50;0.90;;;20.10;98.20;;;;;;4966952;28;20489;-82
2023/09/20 09:09:01;;;;;;;1.50;1.00;;;20.10;98.20;;;;;;4981592;28;20476;-80
2023/09/20 09:11:28;;;;;;;1.50;0.90;;;20.10;98.20;;;;;;4966542;28;20486;-80
2023/09/20 09:13:58;;;;;;;1.50;1.00;;;20.20;98.20;;;;;;4976624;28;20492;-83
2023/09/20 09:16:26;;;;;;;1.50;0.90;;;20.30;98.20;;;;;;4961406;28;20486;-82
2023/09/20 09:18:54;;;;;;;1.50;1.00;;;20.40;98.20;;;;;;4979386;28;20497;-81
2023/09/20 09:21:21;;;;;;;1.50;0.90;;;20.50;98.20;;;;;;4967331;28;20503;-81
2023/09/20 09:23:48;;;;;;;1.50;0.90;;;20.60;98.20;;;;;;4978817;28;20462;-81
2023/09/20 09:26:16;;;;;;;1.50;1.10;;;20.70;98.20;;;;;;4966984;28;20485;-80
2023/09/20 09:28:45;;;;;;;1.50;0.90;;;20.90;98.20;;;;;;4978145;28;20473;-80
2023/09/20 09:31:14;;;;;;;1.50;0.90;;;21.10;98.20;;;;;;4968241;28;20496;-83
2023/09/20 09:33:41;;;;;;;1.50;0.90;;;21.20;98.20;;;;;;4981954;28;20490;-83
2023/09/20 09:36:10;;;;;;;1.50;0.90;;;21.30;98.20;;;;;;4970496;28;20566;-83
2023/09/20 09:38:39;;;;;;;1.47;0.90;;;21.30;98.20;;;;;;4987643;28;20477;-82
2023/09/20 09:41:08;;;;;;;1.50;0.90;;;21.50;98.20;;;;;;4968467;28;20989;-82
2023/09/20 09:43:36;;;;;;;1.50;0.90;;;21.60;98.20;;;;;;4987100;28;20545;-84
2023/09/20 09:46:08;;;;;;;1.63;1.53;;;21.80;98.20;;;;;;4967239;28;20474;-83
2023/09/20 09:48:37;;;;;;;1.50;0.90;;;21.90;98.20;;;;;;4987999;28;20561;-82
2023/09/20 09:51:06;;;;;;;1.50;0.90;;;22.20;98.20;;;;;;4989414;23;21021;-82
2023/09/20 09:53:36;;;;;;;1.50;0.90;;;22.50;98.20;;;;;;4945811;29;20486;-80
2023/09/20 09:56:05;;;;;;;1.50;0.90;;;22.80;98.20;;;;;;4942109;28;20514;-79
2023/09/20 09:58:32;;;;;;;1.50;0.87;;;23.10;98.20;;;;;;4964001;28;20468;-79
2023/09/20 10:01:55;;;;;;;;;;;;;;;;;;;;;
2023/09/20 10:04:24;;;;;;;1.50;0.90;;;23.80;98.00;;;;;;4931394;28;20475;-80
2023/09/20 10:06:59;;;;;;;1.43;0.87;;;24.20;97.30;;;;;;4939989;28;20482;-81
2023/09/20 10:09:36;;;;;;;1.50;0.90;;;24.60;96.70;;;;;;4949628;28;20471;-81
2023/09/20 10:12:03;;;;;;;1.43;0.90;;;24.90;92.60;;;;;;4941208;28;20524;-82
2023/09/20 10:14:31;;;;;;;1.47;0.90;;;24.80;92.40;;;;;;4946636;28;20492;-81
2023/09/20 10:17:02;;;;;;;1.50;0.90;;;25.00;92.70;;;;;;4935947;28;20540;-82
2023/09/20 10:19:36;;;;;;;1.43;0.90;;;25.20;91.50;;;;;;4950097;28;20540;-82
2023/09/20 10:22:09;;;;;;;1.50;1.00;;;25.10;90.80;;;;;;4944368;28;20494;-81
2023/09/20 10:24:45;;;;;;;1.43;0.90;;;25.00;91.60;;;;;;4949842;28;20474;-81
2023/09/20 10:27:16;;;;;;;1.50;0.90;;;24.80;90.90;;;;;;4935163;28;21086;-80
2023/09/20 10:29:58;;;;;;;1.50;0.90;;;24.70;91.50;;;;;;4947569;28;20476;-83
2023/09/20 10:32:31;;;;;;;1.50;0.80;;;24.70;92.20;;;;;;4933524;28;20569;-81
2023/09/20 10:35:27;;;;;;;1.50;0.90;;;24.70;92.40;;;;;;4951526;28;20593;-81
2023/09/20 10:37:59;;;;;;;1.50;0.90;;;24.80;92.30;;;;;;4920985;28;20919;-80
2023/09/20 10:41:00;;;;;;;1.47;0.90;;;24.80;92.20;;;;;;4953450;28;20486;-80
2023/09/20 10:43:47;;;;;;;1.47;0.90;;;24.90;90.90;;;;;;4921685;28;20502;-82
2023/09/20 10:46:17;;;;;;;1.43;0.90;;;25.00;90.60;;;;;;4939081;28;20561;-80
2023/09/20 10:48:48;;;;;;;1.80;1.23;;;25.20;90.10;;;;;;4945122;28;20520;-82
2023/09/20 10:51:48;;;;;;;1.47;0.90;;;25.30;89.50;;;;;;4940725;28;20486;-81
2023/09/20 10:54:20;;;;;;;1.47;0.90;;;25.30;88.50;;;;;;4947477;28;20490;-82
2023/09/20 10:56:58;;;;;;;1.50;0.87;;;25.20;90.10;;;;;;4938598;28;21036;-81
2023/09/20 10:59:27;;;;;;;1.47;0.87;;;25.10;88.70;;;;;;4942809;28;20598;-82
2023/09/20 11:01:56;;;;;;;1.47;0.87;;;25.00;89.20;;;;;;4933197;28;20485;-80
2023/09/20 11:04:24;;;;;;;1.47;0.80;;;25.00;89.60;;;;;;4942732;28;20477;-83
2023/09/20 11:06:53;;;;;;;1.47;0.87;;;25.20;89.60;;;;;;4936537;28;21013;-81
2023/09/20 11:09:22;;;;;;;1.50;0.90;;;25.40;89.30;;;;;;4941747;28;20472;-83
2023/09/20 11:11:50;;;;;;;1.43;0.83;;;25.70;88.30;;;;;;4936609;28;20490;-80
2023/09/20 11:14:17;;;;;;;1.50;0.90;;;25.90;86.50;;;;;;4946171;28;20498;-81
2023/09/20 11:16:44;;;;;;;1.47;0.80;;;26.20;85.30;;;;;;4937925;28;20484;-81
2023/09/20 11:19:12;;;;;;;1.47;0.80;;;26.30;85.20;;;;;;4948499;28;20529;-81
2023/09/20 11:21:39;;;;;;;1.50;0.90;;;26.40;85.00;;;;;;4939272;28;20562;-80
2023/09/20 11:24:10;;;;;;;1.47;0.80;;;26.50;83.30;;;;;;4943768;28;20494;-81
2023/09/20 11:26:39;;;;;;;1.40;0.83;;;26.60;84.20;;;;;;4938285;28;20630;-81
2023/09/20 11:29:06;;;;;;;1.47;0.90;;;26.70;84.90;;;;;;4941938;28;20470;-81
2023/09/20 11:31:35;;;;;;;1.47;0.83;;;26.70;84.60;;;;;;4938832;28;20491;-83
2023/09/20 11:34:04;;;;;;;1.50;0.80;;;26.70;83.50;;;;;;4948183;28;20549;-81
2023/09/20 11:36:56;;;;;;;1.40;0.83;;;26.70;84.60;;;;;;4944862;28;20479;-81
2023/09/20 11:39:31;;;;;;;1.43;0.80;;;26.60;83.70;;;;;;4947438;28;20462;-80
2023/09/20 11:42:03;;;;;;;1.50;0.80;;;26.50;83.10;;;;;;4932667;28;20485;-77
2023/09/20 11:44:34;;;;;;;1.50;0.80;;;26.40;84.40;;;;;;4940789;28;20498;-80
2023/09/20 11:47:03;;;;;;;1.40;0.80;;;26.30;84.20;;;;;;4934474;28;20481;-78
2023/09/20 11:49:36;;;;;;;1.43;0.90;;;26.20;85.00;;;;;;4945228;28;20501;-79
2023/09/20 11:52:03;;;;;;;1.40;0.80;;;26.20;85.60;;;;;;4934499;28;20483;-79
2023/09/20 11:54:34;;;;;;;1.47;0.80;;;26.10;85.50;;;;;;4945197;28;20467;-77
2023/09/20 11:57:03;;;;;;;1.50;0.80;;;26.20;86.10;;;;;;4931895;28;20487;-78
2023/09/20 11:59:30;;;;;;;1.43;0.80;;;26.40;85.70;;;;;;4949058;28;20890;-79
2023/09/20 12:01:57;;;;;;;1.50;0.90;;;26.70;84.90;;;;;;4938940;28;20482;-80
2023/09/20 12:04:28;;;;;;;1.43;0.80;;;26.90;85.40;;;;;;4946758;28;20486;-80
2023/09/20 12:06:56;;;;;;;1.40;0.80;;;27.10;84.00;;;;;;4945863;28;20536;-79
2023/09/20 12:09:23;;;;;;;1.47;0.80;;;27.30;81.90;;;;;;4950111;28;20689;-79
2023/09/20 12:11:51;;;;;;;1.47;0.90;;;27.30;82.00;;;;;;4936984;28;20546;-79
2023/09/20 12:14:18;;;;;;;1.43;0.90;;;27.20;82.10;;;;;;4948951;28;20466;-78
2023/09/20 12:16:48;;;;;;;1.47;0.80;;;27.10;82.80;;;;;;4943198;28;21157;-80
2023/09/20 12:19:16;;;;;;;1.43;0.80;;;27.20;83.60;;;;;;4950176;28;21007;-79
2023/09/20 12:21:45;;;;;;;1.50;0.80;;;27.30;82.90;;;;;;4942867;28;20487;-80
2023/09/20 12:24:13;;;;;;;1.47;0.90;;;27.40;81.90;;;;;;4947747;28;20521;-80
2023/09/20 12:26:40;;;;;;;1.40;0.80;;;27.30;82.80;;;;;;4933530;28;20562;-79
2023/09/20 12:29:08;;;;;;;1.47;0.90;;;27.30;83.20;;;;;;4944357;28;20462;-80
2023/09/20 12:31:35;;;;;;;1.50;1.10;;;27.40;83.20;;;;;;4941128;28;20565;-78
2023/09/20 12:34:02;;;;;;;1.47;0.80;;;27.40;82.30;;;;;;4946180;28;20459;-79
2023/09/20 12:36:29;;;;;;;1.50;0.90;;;27.60;82.40;;;;;;4942331;28;20566;-79
2023/09/20 12:39:34;;;;;;;1.60;1.20;;;27.60;81.40;;;;;;4956000;28;20462;-79
2023/09/20 12:42:01;;;;;;;1.43;0.80;;;27.70;81.80;;;;;;4942383;28;20493;-78
2023/09/20 12:44:29;;;;;;;1.40;0.90;;;27.80;81.00;;;;;;4945967;28;20497;-79
2023/09/20 12:46:56;;;;;;;1.40;0.80;;;27.90;81.00;;;;;;4935944;28;20717;-77
2023/09/20 12:49:23;;;;;;;1.43;0.80;;;28.00;80.30;;;;;;4948664;28;20501;-79
2023/09/20 12:51:50;;;;;;;1.43;0.90;;;27.90;78.80;;;;;;4938591;28;20842;-78
2023/09/20 12:54:17;;;;;;;1.40;0.80;;;27.80;79.30;;;;;;4949956;28;20470;-80
2023/09/20 12:56:43;;;;;;;1.40;0.80;;;27.80;80.90;;;;;;4940968;28;20500;-78
2023/09/20 12:59:11;;;;;;;1.47;0.90;;;27.90;80.10;;;;;;4948064;28;20466;-78
2023/09/20 13:01:39;;;;;;;1.50;0.80;;;27.90;79.80;;;;;;4936975;28;20521;-80
2023/09/20 13:04:10;;;;;;;1.50;0.80;;;27.90;79.00;;;;;;4948709;28;20538;-79
2023/09/20 13:06:38;;;;;;;1.60;1.20;;;27.90;80.80;;;;;;4940450;28;20509;-78
2023/09/20 13:09:05;;;;;;;1.43;0.80;;;27.90;79.90;;;;;;4945188;28;20463;-77
2023/09/20 13:11:32;;;;;;;1.43;0.90;;;27.90;81.30;;;;;;4941079;28;20508;-78
2023/09/20 13:13:58;;;;;;;1.43;0.80;;;28.00;80.80;;;;;;4942137;28;20585;-78
2023/09/20 13:16:25;;;;;;;1.50;1.13;;;28.10;81.90;;;;;;4943501;28;20792;-78
2023/09/20 13:18:53;;;;;;;1.40;0.80;;;28.30;81.60;;;;;;4948754;28;20562;-78
2023/09/20 13:21:21;;;;;;;1.50;0.90;;;28.40;79.00;;;;;;4936112;28;20487;-77
2023/09/20 13:23:48;;;;;;;1.40;0.80;;;28.40;77.80;;;;;;4941926;28;20467;-82
2023/09/20 13:26:15;;;;;;;1.43;0.80;;;28.40;76.60;;;;;;4939397;28;20477;-79
2023/09/20 13:28:42;;;;;;;1.43;0.80;;;28.30;77.50;;;;;;4945895;28;20471;-78
2023/09/20 13:31:11;;;;;;;1.43;0.80;;;28.20;78.00;;;;;;4944193;28;20502;-79
2023/09/20 13:33:39;;;;;;;1.47;0.80;;;28.20;79.40;;;;;;4945768;28;20497;-77
2023/09/20 13:36:17;;;;;;;1.40;0.80;;;28.20;77.30;;;;;;4935016;28;20467;-79
2023/09/20 13:38:43;;;;;;;1.50;0.80;;;28.10;75.50;;;;;;4929340;28;20864;-78